PWSweather.com
Personal Weather Stations
Station Observations

ChardChardGB

Lat: 50.877408, Lon: -2.94964741

Elevation: 341

Station Type: WS3083

http://www.merriott-astro.co.uk/weather/index.htm

High Low Average
Temperature 45.3°F7.4°C 28.8°F-1.8°C 36.3°F2.4°C
Dew Point 28.5°F-1.9°C 20.1°F-6.6°C 24.9°F-3.9°C
Winds 11.0 mph 17.7 kmh Calm Calm 5.0 mph W8.0 kmh W
Wind Gusts 17.4 mph28.0 kmh -- 8.0 mph12.9 kmh
Humidity 75% 48% 63%
Pressure 30.02 in1016.6 mb 29.39 in995.3 mb -
Precipitation 0.15 in3.8 mm - -
Hour Temp Dew Point Humidity Winds Wind Gusts Pressure Precip Precip Rate Daily Precip Total
12:00 AM 34.5°F1.4°C 26.1°F-3.3°C 71% 10.3 mph NNE16.6 kmh NNE 14.5 mph23.3 kmh 29.39 in995.3 mb 0.00 in0.0 mm 0.00 in0.0 mm 0.00 in0.0 mm
12:10 AM 34.5°F1.4°C 26.1°F-3.3°C 71% 10.2 mph N16.4 kmh N 13.6 mph21.9 kmh 29.39 in995.3 mb 0.00 in0.0 mm 0.00 in0.0 mm 0.00 in0.0 mm
12:20 AM 34.3°F1.3°C 25.9°F-3.4°C 71% 10.0 mph NNW16.1 kmh NNW 12.1 mph19.5 kmh 29.39 in995.3 mb 0.00 in0.0 mm 0.00 in0.0 mm 0.00 in0.0 mm
12:30 AM 34.2°F1.2°C 26.1°F-3.3°C 72% 10.2 mph NNW16.4 kmh NNW 13.6 mph21.9 kmh 29.40 in995.6 mb 0.00 in0.0 mm 0.00 in0.0 mm 0.00 in0.0 mm
12:40 AM 34.0°F1.1°C 25.9°F-3.4°C 72% 9.1 mph N14.6 kmh N 12.1 mph19.5 kmh 29.40 in995.6 mb 0.00 in0.0 mm 0.00 in0.0 mm 0.00 in0.0 mm
12:50 AM 33.6°F0.9°C 25.6°F-3.6°C 72% 6.6 mph N10.6 kmh N 10.7 mph17.2 kmh 29.41 in995.9 mb 0.00 in0.0 mm 0.00 in0.0 mm 0.00 in0.0 mm
01:00 AM 33.4°F0.8°C 25.7°F-3.5°C 73% 7.5 mph NW12.1 kmh NW 11.4 mph18.3 kmh 29.41 in995.9 mb 0.00 in0.0 mm 0.00 in0.0 mm 0.00 in0.0 mm
01:10 AM 33.3°F0.7°C 25.6°F-3.6°C 73% 7.7 mph NW12.4 kmh NW 11.4 mph18.3 kmh 29.41 in995.9 mb 0.00 in0.0 mm 0.00 in0.0 mm 0.00 in0.0 mm
01:20 AM 32.9°F0.5°C 25.2°F-3.8°C 73% 5.5 mph NW8.9 kmh NW 8.3 mph13.4 kmh 29.41 in995.9 mb 0.00 in0.0 mm 0.00 in0.0 mm 0.00 in0.0 mm
01:30 AM 33.1°F0.6°C 25.4°F-3.7°C 73% 7.0 mph NW11.3 kmh NW 8.3 mph13.4 kmh 29.43 in996.6 mb 0.00 in0.0 mm 0.00 in0.0 mm 0.00 in0.0 mm
01:40 AM 32.9°F0.5°C 25.5°F-3.6°C 74% 6.0 mph N9.7 kmh N 9.2 mph14.8 kmh 29.42 in996.3 mb 0.01 in0.3 mm 0.06 in1.5 mm 0.01 in0.3 mm
01:50 AM 32.5°F0.3°C 25.2°F-3.8°C 74% 5.5 mph N8.9 kmh N 9.8 mph15.8 kmh 29.43 in996.6 mb 0.01 in0.3 mm 0.00 in0.0 mm 0.01 in0.3 mm
02:00 AM 32.4°F0.2°C 25.0°F-3.9°C 74% 4.7 mph NW7.6 kmh NW 6.9 mph11.1 kmh 29.43 in996.6 mb 0.01 in0.3 mm 0.00 in0.0 mm 0.01 in0.3 mm
02:10 AM 32.2°F0.1°C 24.8°F-4.0°C 74% 3.8 mph NW6.1 kmh NW 6.0 mph9.7 kmh 29.44 in997.0 mb 0.01 in0.3 mm 0.00 in0.0 mm 0.01 in0.3 mm
02:20 AM 32.0°F0.0°C 24.7°F-4.1°C 74% 3.0 mph NNW4.8 kmh NNW 5.4 mph8.7 kmh 29.44 in997.0 mb 0.01 in0.3 mm 0.00 in0.0 mm 0.01 in0.3 mm
02:30 AM 32.0°F0.0°C 24.7°F-4.1°C 74% 3.2 mph NW5.1 kmh NW 4.5 mph7.2 kmh 29.45 in997.3 mb 0.01 in0.3 mm 0.00 in0.0 mm 0.01 in0.3 mm
02:40 AM 32.0°F0.0°C 24.7°F-4.1°C 74% 4.0 mph WNW6.4 kmh WNW 6.0 mph9.7 kmh 29.45 in997.3 mb 0.00 in0.0 mm 0.00 in0.0 mm 0.01 in0.3 mm
02:50 AM 32.0°F0.0°C 25.0°F-3.9°C 75% 3.8 mph NNW6.1 kmh NNW 6.9 mph11.1 kmh 29.46 in997.6 mb 0.00 in0.0 mm 0.00 in0.0 mm 0.01 in0.3 mm
03:00 AM 32.0°F0.0°C 25.0°F-3.9°C 75% 2.9 mph NNW4.7 kmh NNW 4.5 mph7.2 kmh 29.46 in997.6 mb 0.00 in0.0 mm 0.00 in0.0 mm 0.01 in0.3 mm
03:10 AM 32.0°F0.0°C 25.0°F-3.9°C 75% 3.3 mph NW5.3 kmh NW 6.0 mph9.7 kmh 29.46 in997.6 mb 0.00 in0.0 mm 0.00 in0.0 mm 0.01 in0.3 mm
03:20 AM 32.2°F0.1°C 25.2°F-3.8°C 75% 3.9 mph NW6.3 kmh NW 6.0 mph9.7 kmh 29.46 in997.6 mb 0.00 in0.0 mm 0.00 in0.0 mm 0.01 in0.3 mm
03:30 AM 32.5°F0.3°C 25.5°F-3.6°C 75% 4.4 mph NW7.1 kmh NW 9.2 mph14.8 kmh 29.47 in998.0 mb 0.00 in0.0 mm 0.00 in0.0 mm 0.01 in0.3 mm
03:40 AM 32.9°F0.5°C 25.9°F-3.4°C 75% 4.4 mph NW7.1 kmh NW 6.9 mph11.1 kmh 29.48 in998.3 mb 0.00 in0.0 mm 0.00 in0.0 mm 0.01 in0.3 mm
03:50 AM 33.1°F0.6°C 25.7°F-3.5°C 74% 4.8 mph NW7.7 kmh NW 8.3 mph13.4 kmh 29.48 in998.3 mb 0.00 in0.0 mm 0.00 in0.0 mm 0.01 in0.3 mm
04:00 AM 32.9°F0.5°C 25.5°F-3.6°C 74% 5.1 mph NW8.2 kmh NW 8.3 mph13.4 kmh 29.48 in998.3 mb 0.00 in0.0 mm 0.00 in0.0 mm 0.01 in0.3 mm
04:10 AM 32.9°F0.5°C 25.2°F-3.8°C 73% 4.1 mph NW6.6 kmh NW 6.0 mph9.7 kmh 29.50 in999.0 mb 0.00 in0.0 mm 0.00 in0.0 mm 0.01 in0.3 mm
04:20 AM 33.3°F0.7°C 25.6°F-3.6°C 73% 6.1 mph NW9.8 kmh NW 9.2 mph14.8 kmh 29.49 in998.6 mb 0.00 in0.0 mm 0.00 in0.0 mm 0.01 in0.3 mm
04:30 AM 33.3°F0.7°C 25.6°F-3.6°C 73% 4.8 mph N7.7 kmh N 6.9 mph11.1 kmh 29.50 in999.0 mb 0.00 in0.0 mm 0.00 in0.0 mm 0.01 in0.3 mm
04:40 AM 33.3°F0.7°C 25.2°F-3.8°C 72% 5.0 mph NNW8.0 kmh NNW 6.9 mph11.1 kmh 29.50 in999.0 mb 0.00 in0.0 mm 0.00 in0.0 mm 0.01 in0.3 mm
04:50 AM 33.4°F0.8°C 25.4°F-3.7°C 72% 6.6 mph NNW10.6 kmh NNW 8.3 mph13.4 kmh 29.51 in999.3 mb 0.00 in0.0 mm 0.00 in0.0 mm 0.01 in0.3 mm
05:00 AM 33.4°F0.8°C 25.1°F-3.8°C 71% 5.2 mph NNW8.4 kmh NNW 9.2 mph14.8 kmh 29.51 in999.3 mb 0.00 in0.0 mm 0.00 in0.0 mm 0.01 in0.3 mm
05:10 AM 33.3°F0.7°C 24.9°F-3.9°C 71% 4.9 mph N7.9 kmh N 6.0 mph9.7 kmh 29.51 in999.3 mb 0.00 in0.0 mm 0.00 in0.0 mm 0.01 in0.3 mm
05:20 AM 32.9°F0.5°C 24.6°F-4.1°C 71% 4.8 mph N7.7 kmh N 10.7 mph17.2 kmh 29.52 in999.7 mb 0.00 in0.0 mm 0.00 in0.0 mm 0.01 in0.3 mm
05:30 AM 32.7°F0.4°C 24.4°F-4.2°C 71% 3.8 mph NE6.1 kmh NE 5.4 mph8.7 kmh 29.52 in999.7 mb 0.00 in0.0 mm 0.00 in0.0 mm 0.01 in0.3 mm
05:40 AM 32.5°F0.3°C 24.2°F-4.3°C 71% 3.0 mph NE4.8 kmh NE 4.5 mph7.2 kmh 29.52 in999.7 mb 0.00 in0.0 mm 0.00 in0.0 mm 0.01 in0.3 mm
05:50 AM 32.2°F0.1°C 23.9°F-4.5°C 71% 3.8 mph NE6.1 kmh NE 5.4 mph8.7 kmh 29.53 in1000.0 mb 0.00 in0.0 mm 0.00 in0.0 mm 0.01 in0.3 mm
06:00 AM 32.7°F0.4°C 24.7°F-4.1°C 72% 5.2 mph N8.4 kmh N 6.9 mph11.1 kmh 29.53 in1000.0 mb 0.00 in0.0 mm 0.00 in0.0 mm 0.01 in0.3 mm
06:10 AM 33.3°F0.7°C 25.2°F-3.8°C 72% 6.2 mph N10.0 kmh N 10.7 mph17.2 kmh 29.54 in1000.3 mb 0.00 in0.0 mm 0.00 in0.0 mm 0.01 in0.3 mm
06:20 AM 32.9°F0.5°C 24.6°F-4.1°C 71% 4.9 mph NNE7.9 kmh NNE 6.9 mph11.1 kmh 29.55 in1000.7 mb 0.00 in0.0 mm 0.00 in0.0 mm 0.01 in0.3 mm
06:30 AM 33.1°F0.6°C 24.7°F-4.1°C 71% 5.8 mph NW9.3 kmh NW 7.6 mph12.2 kmh 29.56 in1001.0 mb 0.00 in0.0 mm 0.00 in0.0 mm 0.01 in0.3 mm
06:40 AM 32.9°F0.5°C 24.6°F-4.1°C 71% 4.8 mph N7.7 kmh N 6.9 mph11.1 kmh 29.57 in1001.4 mb 0.00 in0.0 mm 0.00 in0.0 mm 0.01 in0.3 mm
06:50 AM 32.9°F0.5°C 24.6°F-4.1°C 71% 6.0 mph N9.7 kmh N 10.7 mph17.2 kmh 29.57 in1001.4 mb 0.00 in0.0 mm 0.00 in0.0 mm 0.01 in0.3 mm
07:00 AM 32.9°F0.5°C 24.6°F-4.1°C 71% 6.6 mph N10.6 kmh N 8.3 mph13.4 kmh 29.57 in1001.4 mb 0.00 in0.0 mm 0.00 in0.0 mm 0.01 in0.3 mm
07:10 AM 32.7°F0.4°C 24.4°F-4.2°C 71% 5.9 mph NNW9.5 kmh NNW 9.2 mph14.8 kmh 29.58 in1001.7 mb 0.00 in0.0 mm 0.00 in0.0 mm 0.01 in0.3 mm
07:20 AM 32.4°F0.2°C 24.0°F-4.4°C 71% 5.2 mph NNE8.4 kmh NNE 8.3 mph13.4 kmh 29.58 in1001.7 mb 0.00 in0.0 mm 0.00 in0.0 mm 0.01 in0.3 mm
07:30 AM 32.4°F0.2°C 24.0°F-4.4°C 71% 4.8 mph NNW7.7 kmh NNW 6.0 mph9.7 kmh 29.59 in1002.0 mb 0.00 in0.0 mm 0.00 in0.0 mm 0.01 in0.3 mm
07:40 AM 32.2°F0.1°C 23.9°F-4.5°C 71% 4.9 mph NW7.9 kmh NW 6.0 mph9.7 kmh 29.60 in1002.4 mb 0.00 in0.0 mm 0.00 in0.0 mm 0.01 in0.3 mm
07:50 AM 32.4°F0.2°C 24.4°F-4.2°C 72% 4.2 mph NW6.8 kmh NW 6.0 mph9.7 kmh 29.60 in1002.4 mb 0.00 in0.0 mm 0.00 in0.0 mm 0.01 in0.3 mm
08:00 AM 32.5°F0.3°C 24.5°F-4.2°C 72% 4.3 mph N6.9 kmh N 6.9 mph11.1 kmh 29.61 in1002.7 mb 0.00 in0.0 mm 0.00 in0.0 mm 0.01 in0.3 mm
08:10 AM 32.5°F0.3°C 24.5°F-4.2°C 72% 4.9 mph NNE7.9 kmh NNE 8.3 mph13.4 kmh 29.62 in1003.0 mb 0.00 in0.0 mm 0.00 in0.0 mm 0.01 in0.3 mm
08:20 AM 32.9°F0.5°C 24.9°F-3.9°C 72% 4.6 mph N7.4 kmh N 6.0 mph9.7 kmh 29.62 in1003.0 mb 0.00 in0.0 mm 0.00 in0.0 mm 0.01 in0.3 mm
08:30 AM 33.4°F0.8°C 25.1°F-3.8°C 71% 5.8 mph NNW9.3 kmh NNW 9.8 mph15.8 kmh 29.63 in1003.4 mb 0.00 in0.0 mm 0.00 in0.0 mm 0.01 in0.3 mm
08:40 AM 34.0°F1.1°C 25.6°F-3.6°C 71% 5.4 mph NW8.7 kmh NW 7.6 mph12.2 kmh 29.63 in1003.4 mb 0.00 in0.0 mm 0.00 in0.0 mm 0.01 in0.3 mm
08:50 AM 34.3°F1.3°C 25.6°F-3.6°C 70% 4.6 mph NW7.4 kmh NW 6.9 mph11.1 kmh 29.64 in1003.7 mb 0.00 in0.0 mm 0.00 in0.0 mm 0.01 in0.3 mm
09:00 AM 34.7°F1.5°C 25.9°F-3.4°C 70% 5.9 mph NW9.5 kmh NW 7.6 mph12.2 kmh 29.64 in1003.7 mb 0.00 in0.0 mm 0.00 in0.0 mm 0.01 in0.3 mm
09:10 AM 35.2°F1.8°C 25.8°F-3.4°C 68% 6.4 mph NNW10.3 kmh NNW 7.6 mph12.2 kmh 29.66 in1004.4 mb 0.00 in0.0 mm 0.00 in0.0 mm 0.01 in0.3 mm
09:20 AM 35.6°F2.0°C 25.7°F-3.5°C 67% 8.0 mph NNW12.9 kmh NNW 9.2 mph14.8 kmh 29.66 in1004.4 mb 0.00 in0.0 mm 0.00 in0.0 mm 0.01 in0.3 mm
09:30 AM 35.6°F2.0°C 25.4°F-3.7°C 66% 6.8 mph NNE10.9 kmh NNE 11.4 mph18.3 kmh 29.67 in1004.7 mb 0.00 in0.0 mm 0.00 in0.0 mm 0.01 in0.3 mm
09:40 AM 36.0°F2.2°C 25.7°F-3.5°C 66% 6.6 mph NNW10.6 kmh NNW 9.2 mph14.8 kmh 29.67 in1004.7 mb 0.00 in0.0 mm 0.00 in0.0 mm 0.01 in0.3 mm
09:50 AM 36.1°F2.3°C 25.5°F-3.6°C 65% 7.2 mph NW11.6 kmh NW 9.2 mph14.8 kmh 29.67 in1004.7 mb 0.00 in0.0 mm 0.00 in0.0 mm 0.01 in0.3 mm
10:00 AM 36.5°F2.5°C 25.9°F-3.4°C 65% 6.5 mph NNW10.5 kmh NNW 10.7 mph17.2 kmh 29.68 in1005.1 mb 0.00 in0.0 mm 0.00 in0.0 mm 0.01 in0.3 mm
10:10 AM 36.7°F2.6°C 26.0°F-3.3°C 65% 4.9 mph N7.9 kmh N 6.9 mph11.1 kmh 29.68 in1005.1 mb 0.00 in0.0 mm 0.00 in0.0 mm 0.01 in0.3 mm
10:20 AM 37.2°F2.9°C 26.2°F-3.2°C 64% 4.9 mph NNW7.9 kmh NNW 7.6 mph12.2 kmh 29.69 in1005.4 mb 0.00 in0.0 mm 0.00 in0.0 mm 0.01 in0.3 mm
10:30 AM 37.4°F3.0°C 26.0°F-3.3°C 63% 6.5 mph NNW10.5 kmh NNW 9.8 mph15.8 kmh 29.69 in1005.4 mb 0.00 in0.0 mm 0.00 in0.0 mm 0.01 in0.3 mm
10:40 AM 37.9°F3.3°C 26.5°F-3.1°C 63% 6.3 mph NW10.1 kmh NW 11.4 mph18.3 kmh 29.70 in1005.8 mb 0.00 in0.0 mm 0.00 in0.0 mm 0.01 in0.3 mm
10:50 AM 40.3°F4.6°C 27.5°F-2.5°C 60% 6.2 mph NNW10.0 kmh NNW 8.3 mph13.4 kmh 29.70 in1005.8 mb 0.00 in0.0 mm 0.00 in0.0 mm 0.01 in0.3 mm
11:00 AM 41.7°F5.4°C 27.6°F-2.4°C 57% 6.4 mph NW10.3 kmh NW 10.7 mph17.2 kmh 29.71 in1006.1 mb 0.00 in0.0 mm 0.00 in0.0 mm 0.01 in0.3 mm
11:10 AM 42.3°F5.7°C 27.3°F-2.6°C 55% 8.0 mph N12.9 kmh N 12.1 mph19.5 kmh 29.71 in1006.1 mb 0.00 in0.0 mm 0.00 in0.0 mm 0.01 in0.3 mm
11:20 AM 42.3°F5.7°C 26.8°F-2.9°C 54% 7.7 mph N12.4 kmh N 10.7 mph17.2 kmh 29.71 in1006.1 mb 0.00 in0.0 mm 0.00 in0.0 mm 0.01 in0.3 mm
11:30 AM 42.3°F5.7°C 26.8°F-2.9°C 54% 10.5 mph N16.9 kmh N 14.5 mph23.3 kmh 29.72 in1006.4 mb 0.01 in0.3 mm 0.06 in1.5 mm 0.02 in0.5 mm
11:40 AM 42.4°F5.8°C 26.5°F-3.1°C 53% 9.2 mph NW14.8 kmh NW 13.0 mph20.9 kmh 29.72 in1006.4 mb 0.01 in0.3 mm 0.00 in0.0 mm 0.02 in0.5 mm
11:50 AM 43.2°F6.2°C 26.7°F-2.9°C 52% 7.8 mph N12.6 kmh N 15.2 mph24.5 kmh 29.72 in1006.4 mb 0.02 in0.5 mm 0.06 in1.5 mm 0.04 in1.0 mm
12:00 PM 43.7°F6.5°C 27.2°F-2.7°C 52% 9.6 mph NW15.4 kmh NW 15.9 mph25.6 kmh 29.73 in1006.8 mb 0.04 in1.0 mm 0.02 in0.5 mm 0.05 in1.3 mm
12:10 PM 43.7°F6.5°C 27.2°F-2.7°C 52% 7.6 mph N12.2 kmh N 10.7 mph17.2 kmh 29.72 in1006.4 mb 0.05 in1.3 mm 0.06 in1.5 mm 0.06 in1.5 mm
12:20 PM 44.6°F7.0°C 28.5°F-1.9°C 53% 5.8 mph NNW9.3 kmh NNW 9.2 mph14.8 kmh 29.73 in1006.8 mb 0.06 in1.5 mm 0.06 in1.5 mm 0.07 in1.8 mm
12:30 PM 44.2°F6.8°C 28.2°F-2.1°C 53% 5.0 mph NW8.0 kmh NW 9.2 mph14.8 kmh 29.73 in1006.8 mb 0.06 in1.5 mm 0.00 in0.0 mm 0.08 in2.0 mm
12:40 PM 44.1°F6.7°C 28.5°F-1.9°C 54% 7.4 mph NNW11.9 kmh NNW 11.4 mph18.3 kmh 29.73 in1006.8 mb 0.07 in1.8 mm 0.06 in1.5 mm 0.09 in2.3 mm
12:50 PM 43.5°F6.4°C 27.1°F-2.7°C 52% 10.6 mph NW17.1 kmh NW 15.2 mph24.5 kmh 29.73 in1006.8 mb 0.06 in1.5 mm 0.00 in0.0 mm 0.09 in2.3 mm
01:00 PM 44.4°F6.9°C 27.9°F-2.3°C 52% 8.4 mph NW13.5 kmh NW 11.4 mph18.3 kmh 29.73 in1006.8 mb 0.06 in1.5 mm 0.00 in0.0 mm 0.11 in2.8 mm
01:10 PM 44.2°F6.8°C 27.7°F-2.4°C 52% 8.7 mph NW14.0 kmh NW 13.0 mph20.9 kmh 29.73 in1006.8 mb 0.06 in1.5 mm 0.00 in0.0 mm 0.12 in3.0 mm
01:20 PM 44.2°F6.8°C 27.3°F-2.6°C 51% 10.2 mph NW16.4 kmh NW 13.0 mph20.9 kmh 29.73 in1006.8 mb 0.06 in1.5 mm 0.00 in0.0 mm 0.13 in3.3 mm
01:30 PM 45.1°F7.3°C 28.1°F-2.2°C 51% 7.8 mph NW12.6 kmh NW 12.1 mph19.5 kmh 29.75 in1007.5 mb 0.05 in1.3 mm 0.00 in0.0 mm 0.13 in3.3 mm
01:40 PM 44.4°F6.9°C 27.0°F-2.8°C 50% 10.8 mph NNW17.4 kmh NNW 15.2 mph24.5 kmh 29.75 in1007.5 mb 0.05 in1.3 mm 0.00 in0.0 mm 0.14 in3.6 mm
01:50 PM 44.8°F7.1°C 26.8°F-2.9°C 49% 9.1 mph NNW14.6 kmh NNW 11.4 mph18.3 kmh 29.76 in1007.8 mb 0.04 in1.0 mm 0.00 in0.0 mm 0.14 in3.6 mm
02:00 PM 45.3°F7.4°C 26.8°F-2.9°C 48% 10.7 mph NNW17.2 kmh NNW 16.8 mph27.0 kmh 29.76 in1007.8 mb 0.05 in1.3 mm 0.01 in0.3 mm 0.15 in3.8 mm
02:10 PM 42.6°F5.9°C 25.3°F-3.7°C 50% 11.0 mph NNE17.7 kmh NNE 16.8 mph27.0 kmh 29.76 in1007.8 mb 0.04 in1.0 mm 0.00 in0.0 mm 0.15 in3.8 mm
02:20 PM 43.0°F6.1°C 26.1°F-3.3°C 51% 8.9 mph NW14.3 kmh NW 13.6 mph21.9 kmh 29.76 in1007.8 mb 0.02 in0.5 mm 0.00 in0.0 mm 0.15 in3.8 mm
02:30 PM 42.8°F6.0°C 25.5°F-3.6°C 50% 5.7 mph NNW9.2 kmh NNW 9.8 mph15.8 kmh 29.78 in1008.5 mb 0.02 in0.5 mm 0.00 in0.0 mm 0.15 in3.8 mm
02:40 PM 42.4°F5.8°C 25.6°F-3.6°C 51% 5.7 mph N9.2 kmh N 13.6 mph21.9 kmh 29.77 in1008.1 mb 0.01 in0.3 mm 0.00 in0.0 mm 0.15 in3.8 mm
02:50 PM 43.7°F6.5°C 26.3°F-3.2°C 50% 7.1 mph NW11.4 kmh NW 13.6 mph21.9 kmh 29.78 in1008.5 mb 0.01 in0.3 mm 0.00 in0.0 mm 0.15 in3.8 mm
03:00 PM 44.4°F6.9°C 27.0°F-2.8°C 50% 5.6 mph N9.0 kmh N 11.4 mph18.3 kmh 29.78 in1008.5 mb 0.00 in0.0 mm 0.00 in0.0 mm 0.15 in3.8 mm
03:10 PM 42.1°F5.6°C 24.8°F-4.0°C 50% 7.0 mph N11.3 kmh N 11.4 mph18.3 kmh 29.78 in1008.5 mb 0.00 in0.0 mm 0.00 in0.0 mm 0.15 in3.8 mm
03:20 PM 41.4°F5.2°C 24.6°F-4.1°C 51% 8.1 mph NW13.0 kmh NW 13.0 mph20.9 kmh 29.79 in1008.8 mb 0.00 in0.0 mm 0.00 in0.0 mm 0.15 in3.8 mm
03:30 PM 41.2°F5.1°C 24.9°F-3.9°C 52% 6.1 mph NNW9.8 kmh NNW 13.6 mph21.9 kmh 29.80 in1009.1 mb 0.00 in0.0 mm 0.00 in0.0 mm 0.15 in3.8 mm
03:40 PM 41.2°F5.1°C 24.9°F-3.9°C 52% 7.0 mph WNW11.3 kmh WNW 17.4 mph28.0 kmh 29.80 in1009.1 mb 0.00 in0.0 mm 0.00 in0.0 mm 0.15 in3.8 mm
03:50 PM 41.2°F5.1°C 25.4°F-3.7°C 53% 3.1 mph NW5.0 kmh NW 12.1 mph19.5 kmh 29.81 in1009.5 mb 0.00 in0.0 mm 0.00 in0.0 mm 0.15 in3.8 mm
04:00 PM 41.2°F5.1°C 25.4°F-3.7°C 53% 4.0 mph N6.4 kmh N 12.1 mph19.5 kmh 29.81 in1009.5 mb 0.00 in0.0 mm 0.00 in0.0 mm 0.15 in3.8 mm
04:10 PM 40.5°F4.7°C 25.1°F-3.8°C 54% 3.7 mph NNW6.0 kmh NNW 15.2 mph24.5 kmh 29.82 in1009.8 mb 0.00 in0.0 mm 0.00 in0.0 mm 0.15 in3.8 mm
04:20 PM 40.1°F4.5°C 25.2°F-3.8°C 55% 1.1 mph N1.8 kmh N 8.3 mph13.4 kmh 29.82 in1009.8 mb 0.00 in0.0 mm 0.00 in0.0 mm 0.15 in3.8 mm
04:30 PM 39.7°F4.3°C 24.9°F-3.9°C 55% 1.5 mph NW2.4 kmh NW 7.6 mph12.2 kmh 29.83 in1010.2 mb 0.00 in0.0 mm 0.00 in0.0 mm 0.15 in3.8 mm
04:40 PM 39.6°F4.2°C 25.2°F-3.8°C 56% 0.9 mph W1.4 kmh W 5.4 mph8.7 kmh 29.84 in1010.5 mb 0.00 in0.0 mm 0.00 in0.0 mm 0.15 in3.8 mm
04:50 PM 39.6°F4.2°C 25.2°F-3.8°C 56% 2.7 mph NW4.3 kmh NW 7.6 mph12.2 kmh 29.84 in1010.5 mb 0.00 in0.0 mm 0.00 in0.0 mm 0.15 in3.8 mm
05:00 PM 39.4°F4.1°C 25.0°F-3.9°C 56% 1.8 mph WNW2.9 kmh WNW 7.6 mph12.2 kmh 29.85 in1010.8 mb 0.00 in0.0 mm 0.00 in0.0 mm 0.15 in3.8 mm
05:10 PM 39.2°F4.0°C 24.8°F-4.0°C 56% 1.5 mph NNW2.4 kmh NNW 5.4 mph8.7 kmh 29.85 in1010.8 mb 0.00 in0.0 mm 0.00 in0.0 mm 0.15 in3.8 mm
05:20 PM 38.7°F3.7°C 24.3°F-4.3°C 56% 2.0 mph SW3.2 kmh SW 9.2 mph14.8 kmh 29.85 in1010.8 mb 0.00 in0.0 mm 0.00 in0.0 mm 0.15 in3.8 mm
05:30 PM 38.5°F3.6°C 24.6°F-4.1°C 57% 2.7 mph NW4.3 kmh NW 9.2 mph14.8 kmh 29.86 in1011.2 mb 0.00 in0.0 mm 0.00 in0.0 mm 0.15 in3.8 mm
05:40 PM 38.1°F3.4°C 24.3°F-4.3°C 57% 3.8 mph NNW6.1 kmh NNW 6.9 mph11.1 kmh 29.87 in1011.5 mb 0.00 in0.0 mm 0.00 in0.0 mm 0.15 in3.8 mm
05:50 PM 37.8°F3.2°C 24.3°F-4.3°C 58% 1.6 mph NW2.6 kmh NW 6.9 mph11.1 kmh 29.87 in1011.5 mb 0.00 in0.0 mm 0.00 in0.0 mm 0.15 in3.8 mm
06:00 PM 37.6°F3.1°C 24.2°F-4.3°C 58% 0.8 mph NW1.3 kmh NW 4.5 mph7.2 kmh 29.87 in1011.5 mb 0.00 in0.0 mm 0.00 in0.0 mm 0.15 in3.8 mm
06:10 PM 37.4°F3.0°C 24.0°F-4.4°C 58% Calm Calm 0.7 mph1.1 kmh 29.88 in1011.9 mb 0.00 in0.0 mm 0.00 in0.0 mm 0.15 in3.8 mm
06:20 PM 37.6°F3.1°C 24.2°F-4.3°C 58% 0.3 mph N0.5 kmh N 3.8 mph6.1 kmh 29.89 in1012.2 mb 0.00 in0.0 mm 0.00 in0.0 mm 0.15 in3.8 mm
06:30 PM 37.6°F3.1°C 24.2°F-4.3°C 58% 2.0 mph NNW3.2 kmh NNW 6.0 mph9.7 kmh 29.89 in1012.2 mb 0.00 in0.0 mm 0.00 in0.0 mm 0.15 in3.8 mm
06:40 PM 37.4°F3.0°C 24.4°F-4.2°C 59% 0.3 mph NNE0.5 kmh NNE 2.2 mph3.5 kmh 29.90 in1012.5 mb 0.00 in0.0 mm 0.00 in0.0 mm 0.15 in3.8 mm
06:50 PM 37.0°F2.8°C 24.5°F-4.2°C 60% Calm Calm -- 29.91 in1012.9 mb 0.00 in0.0 mm 0.00 in0.0 mm 0.15 in3.8 mm
07:00 PM 36.9°F2.7°C 24.3°F-4.3°C 60% Calm Calm -- 29.90 in1012.5 mb 0.00 in0.0 mm 0.00 in0.0 mm 0.15 in3.8 mm
07:10 PM 37.0°F2.8°C 24.5°F-4.2°C 60% 0.1 mph NE0.2 kmh NE 1.6 mph2.6 kmh 29.91 in1012.9 mb 0.00 in0.0 mm 0.00 in0.0 mm 0.15 in3.8 mm
07:20 PM 37.2°F2.9°C 24.6°F-4.1°C 60% 3.2 mph NW5.1 kmh NW 7.6 mph12.2 kmh 29.91 in1012.9 mb 0.00 in0.0 mm 0.00 in0.0 mm 0.15 in3.8 mm
07:30 PM 37.4°F3.0°C 24.8°F-4.0°C 60% 2.4 mph N3.9 kmh N 7.6 mph12.2 kmh 29.91 in1012.9 mb 0.00 in0.0 mm 0.00 in0.0 mm 0.15 in3.8 mm
07:40 PM 37.6°F3.1°C 25.0°F-3.9°C 60% 6.0 mph NNW9.7 kmh NNW 9.8 mph15.8 kmh 29.91 in1012.9 mb 0.00 in0.0 mm 0.00 in0.0 mm 0.15 in3.8 mm
07:50 PM 37.6°F3.1°C 24.6°F-4.1°C 59% 7.1 mph NNW11.4 kmh NNW 10.7 mph17.2 kmh 29.92 in1013.2 mb 0.00 in0.0 mm 0.00 in0.0 mm 0.15 in3.8 mm
08:00 PM 37.4°F3.0°C 24.4°F-4.2°C 59% 6.6 mph NNW10.6 kmh NNW 11.4 mph18.3 kmh 29.93 in1013.5 mb 0.00 in0.0 mm 0.00 in0.0 mm 0.15 in3.8 mm
08:10 PM 36.9°F2.7°C 24.3°F-4.3°C 60% 5.0 mph NNW8.0 kmh NNW 6.9 mph11.1 kmh 29.93 in1013.5 mb 0.00 in0.0 mm 0.00 in0.0 mm 0.15 in3.8 mm
08:20 PM 37.0°F2.8°C 24.5°F-4.2°C 60% 6.3 mph NNW10.1 kmh NNW 9.2 mph14.8 kmh 29.93 in1013.5 mb 0.00 in0.0 mm 0.00 in0.0 mm 0.15 in3.8 mm
08:30 PM 36.7°F2.6°C 24.1°F-4.4°C 60% 4.5 mph NNW7.2 kmh NNW 7.6 mph12.2 kmh 29.94 in1013.9 mb 0.00 in0.0 mm 0.00 in0.0 mm 0.15 in3.8 mm
08:40 PM 36.9°F2.7°C 24.3°F-4.3°C 60% 5.2 mph NNW8.4 kmh NNW 8.3 mph13.4 kmh 29.94 in1013.9 mb 0.00 in0.0 mm 0.00 in0.0 mm 0.15 in3.8 mm
08:50 PM 36.5°F2.5°C 24.0°F-4.4°C 60% 4.6 mph N7.4 kmh N 8.3 mph13.4 kmh 29.95 in1014.2 mb 0.00 in0.0 mm 0.00 in0.0 mm 0.15 in3.8 mm
09:00 PM 36.1°F2.3°C 23.6°F-4.7°C 60% 4.1 mph NW6.6 kmh NW 6.9 mph11.1 kmh 29.95 in1014.2 mb 0.00 in0.0 mm 0.00 in0.0 mm 0.15 in3.8 mm
09:10 PM 35.6°F2.0°C 23.1°F-4.9°C 60% 3.5 mph NE5.6 kmh NE 5.4 mph8.7 kmh 29.96 in1014.6 mb 0.00 in0.0 mm 0.00 in0.0 mm 0.15 in3.8 mm
09:20 PM 35.1°F1.7°C 22.6°F-5.2°C 60% 3.9 mph NE6.3 kmh NE 6.0 mph9.7 kmh 29.96 in1014.6 mb 0.00 in0.0 mm 0.00 in0.0 mm 0.15 in3.8 mm
09:30 PM 34.9°F1.6°C 22.8°F-5.1°C 61% 5.8 mph NE9.3 kmh NE 6.9 mph11.1 kmh 29.96 in1014.6 mb 0.00 in0.0 mm 0.00 in0.0 mm 0.15 in3.8 mm
09:40 PM 34.7°F1.5°C 22.7°F-5.2°C 61% 4.3 mph N6.9 kmh N 6.0 mph9.7 kmh 29.97 in1014.9 mb 0.00 in0.0 mm 0.00 in0.0 mm 0.15 in3.8 mm
09:50 PM 34.0°F1.1°C 22.0°F-5.6°C 61% 1.6 mph N2.6 kmh N 3.1 mph5.0 kmh 29.98 in1015.2 mb 0.00 in0.0 mm 0.00 in0.0 mm 0.15 in3.8 mm
10:00 PM 33.4°F0.8°C 21.5°F-5.8°C 61% 0.4 mph E0.6 kmh E 1.6 mph2.6 kmh 29.98 in1015.2 mb 0.00 in0.0 mm 0.00 in0.0 mm 0.15 in3.8 mm
10:10 PM 32.9°F0.5°C 21.3°F-5.9°C 62% 1.0 mph S1.6 kmh S 2.2 mph3.5 kmh 29.98 in1015.2 mb 0.00 in0.0 mm 0.00 in0.0 mm 0.15 in3.8 mm
10:20 PM 32.0°F0.0°C 20.5°F-6.4°C 62% 0.3 mph S0.5 kmh S 1.6 mph2.6 kmh 29.99 in1015.6 mb 0.00 in0.0 mm 0.00 in0.0 mm 0.15 in3.8 mm
10:30 PM 31.5°F-0.3°C 20.3°F-6.5°C 63% 0.6 mph SW1.0 kmh SW 1.6 mph2.6 kmh 30.00 in1015.9 mb 0.00 in0.0 mm 0.00 in0.0 mm 0.15 in3.8 mm
10:40 PM 30.7°F-0.7°C 20.4°F-6.4°C 65% 0.5 mph W0.8 kmh W 1.6 mph2.6 kmh 30.00 in1015.9 mb 0.00 in0.0 mm 0.00 in0.0 mm 0.15 in3.8 mm
10:50 PM 30.0°F-1.1°C 20.1°F-6.6°C 66% 0.2 mph W0.3 kmh W 0.7 mph1.1 kmh 30.00 in1015.9 mb 0.00 in0.0 mm 0.00 in0.0 mm 0.15 in3.8 mm
11:00 PM 29.8°F-1.2°C 20.6°F-6.3°C 68% Calm Calm -- 30.01 in1016.3 mb 0.00 in0.0 mm 0.00 in0.0 mm 0.15 in3.8 mm
11:10 PM 29.5°F-1.4°C 20.6°F-6.3°C 69% 0.1 mph W0.2 kmh W 0.7 mph1.1 kmh 30.01 in1016.3 mb 0.00 in0.0 mm 0.00 in0.0 mm 0.15 in3.8 mm
11:20 PM 29.1°F-1.6°C 20.6°F-6.3°C 70% Calm Calm -- 30.02 in1016.6 mb 0.00 in0.0 mm 0.00 in0.0 mm 0.15 in3.8 mm
11:30 PM 29.1°F-1.6°C 20.6°F-6.3°C 70% 0.2 mph S0.3 kmh S 1.6 mph2.6 kmh 30.01 in1016.3 mb 0.00 in0.0 mm 0.00 in0.0 mm 0.15 in3.8 mm
11:40 PM 28.8°F-1.8°C 20.2°F-6.6°C 70% Calm Calm 0.7 mph1.1 kmh 30.02 in1016.6 mb 0.00 in0.0 mm 0.00 in0.0 mm 0.15 in3.8 mm
11:50 PM 28.8°F-1.8°C 20.6°F-6.3°C 71% Calm Calm -- 30.02 in1016.6 mb 0.00 in0.0 mm 0.00 in0.0 mm 0.15 in3.8 mm